createdAt,value
2024-01-17T00:00:14.253Z,0.00
2024-01-17T00:02:42.829Z,0.00
2024-01-17T00:05:12.998Z,-0.10
2024-01-17T00:07:40.529Z,-0.20
2024-01-17T00:10:08.476Z,-0.30
2024-01-17T00:12:35.796Z,-0.30
2024-01-17T00:15:03.296Z,-0.30
2024-01-17T00:17:30.626Z,-0.20
2024-01-17T00:19:57.715Z,-0.30
2024-01-17T00:22:24.581Z,-0.20
2024-01-17T00:24:52.450Z,-0.20
2024-01-17T00:27:19.600Z,-0.30
2024-01-17T00:29:46.569Z,-0.30
2024-01-17T00:32:13.535Z,-0.40
2024-01-17T00:34:40.721Z,-0.40
2024-01-17T00:37:08.363Z,-0.50
2024-01-17T00:39:35.377Z,-0.50
2024-01-17T00:42:02.385Z,-0.40
2024-01-17T00:44:30.097Z,-0.40
2024-01-17T00:46:57.129Z,-0.50
2024-01-17T00:49:24.027Z,-0.50
2024-01-17T00:51:50.955Z,-0.50
2024-01-17T00:54:17.937Z,-0.40
2024-01-17T00:56:44.821Z,-0.30
2024-01-17T00:59:11.651Z,-0.40
2024-01-17T01:01:38.532Z,-0.40
2024-01-17T01:04:05.622Z,-0.40
2024-01-17T01:06:33.171Z,-0.50
2024-01-17T01:09:00.160Z,-0.40
2024-01-17T01:11:31.553Z,-0.40
2024-01-17T01:13:58.464Z,-0.40
2024-01-17T01:16:25.791Z,-0.40
2024-01-17T01:18:52.895Z,-0.50
2024-01-17T01:21:20.627Z,-0.50
2024-01-17T01:23:49.687Z,-0.60
2024-01-17T01:26:16.520Z,-0.60
2024-01-17T01:28:43.447Z,-0.60
2024-01-17T01:31:10.973Z,-0.60
2024-01-17T01:33:38.207Z,-0.70
2024-01-17T01:36:07.365Z,-0.70
2024-01-17T01:38:34.671Z,-0.80
2024-01-17T01:41:01.732Z,-0.90
2024-01-17T01:43:28.755Z,-0.90
2024-01-17T01:46:04.953Z,-0.80
2024-01-17T01:48:33.064Z,-0.80
2024-01-17T01:51:00.283Z,-0.80
2024-01-17T01:53:30.562Z,-0.80
2024-01-17T01:55:58.721Z,-0.80
2024-01-17T01:58:26.868Z,-0.70
2024-01-17T02:00:55.635Z,-0.80
2024-01-17T02:03:26.778Z,-0.80
2024-01-17T02:05:54.484Z,-0.80
2024-01-17T02:08:21.470Z,-0.80
2024-01-17T02:10:48.482Z,-0.80
2024-01-17T02:13:15.876Z,-0.80
2024-01-17T02:15:42.857Z,-0.90
2024-01-17T02:18:10.013Z,-0.80
2024-01-17T02:20:37.472Z,-0.70
2024-01-17T02:23:28.766Z,-0.80
2024-01-17T02:25:57.621Z,-0.70
2024-01-17T02:28:31.275Z,-0.70
2024-01-17T02:30:59.766Z,-0.80
2024-01-17T02:33:26.914Z,-0.80
2024-01-17T02:35:54.205Z,-0.80
2024-01-17T02:38:21.224Z,-0.70
2024-01-17T02:40:48.101Z,-0.80
2024-01-17T02:43:14.923Z,-0.80
2024-01-17T02:45:41.946Z,-0.80
2024-01-17T02:48:08.904Z,-0.80
2024-01-17T02:50:35.944Z,-0.80
2024-01-17T02:53:02.887Z,-0.80
2024-01-17T02:55:29.787Z,-0.80
2024-01-17T02:57:56.891Z,-0.80
2024-01-17T03:00:23.737Z,-0.80
2024-01-17T03:02:51.042Z,-0.90
2024-01-17T03:05:18.179Z,-0.90
2024-01-17T03:07:45.234Z,-0.90
2024-01-17T03:10:13.756Z,-0.90
2024-01-17T03:12:42.383Z,-0.80
2024-01-17T03:15:12.454Z,-0.70
2024-01-17T03:17:39.759Z,-0.80
2024-01-17T03:20:08.095Z,-0.80
2024-01-17T03:22:35.082Z,-0.70
2024-01-17T03:25:02.385Z,-0.70
2024-01-17T03:27:29.412Z,-0.70
2024-01-17T03:29:56.567Z,-0.70
2024-01-17T03:32:23.610Z,-0.70
2024-01-17T03:34:52.917Z,-0.80
2024-01-17T03:37:20.113Z,-0.70
2024-01-17T03:39:47.050Z,-0.70
2024-01-17T03:42:17.257Z,-0.70
2024-01-17T03:44:45.195Z,-0.70
2024-01-17T03:47:13.374Z,-0.80
2024-01-17T03:49:40.661Z,-0.90
2024-01-17T03:52:10.757Z,-0.90
2024-01-17T03:54:37.839Z,-0.90
2024-01-17T03:57:06.327Z,-0.90
2024-01-17T03:59:33.604Z,-0.90
2024-01-17T04:02:00.561Z,-0.90
2024-01-17T04:04:28.016Z,-0.90
2024-01-17T04:06:57.760Z,-0.90
2024-01-17T04:09:25.837Z,-0.90
2024-01-17T04:11:53.513Z,-1.00
2024-01-17T04:14:20.526Z,-1.10
2024-01-17T04:16:47.592Z,-1.10
2024-01-17T04:19:14.984Z,-1.20
2024-01-17T04:21:41.944Z,-1.20
2024-01-17T04:24:09.204Z,-1.20
2024-01-17T04:26:36.275Z,-1.20
2024-01-17T04:29:03.141Z,-1.20
2024-01-17T04:31:31.452Z,-1.10
2024-01-17T04:33:59.640Z,-1.00
2024-01-17T04:36:31.388Z,-1.00
2024-01-17T04:38:59.446Z,-1.10
2024-01-17T04:41:26.546Z,-1.00
2024-01-17T04:43:53.581Z,-1.10
2024-01-17T04:46:20.473Z,-1.00
2024-01-17T04:48:47.638Z,-1.00
2024-01-17T04:51:15.119Z,-1.00
2024-01-17T04:53:45.672Z,-0.90
2024-01-17T04:56:14.588Z,-1.00
2024-01-17T04:58:42.005Z,-1.00
2024-01-17T05:01:10.038Z,-1.00
2024-01-17T05:03:42.887Z,-0.90
2024-01-17T05:06:10.426Z,-0.90
2024-01-17T05:08:37.722Z,-1.00
2024-01-17T05:11:04.784Z,-1.00
2024-01-17T05:13:31.732Z,-1.00
2024-01-17T05:15:58.702Z,-0.90
2024-01-17T05:18:25.676Z,-0.90
2024-01-17T05:20:52.602Z,-0.90
2024-01-17T05:23:19.459Z,-1.00
2024-01-17T05:25:46.308Z,-1.00
2024-01-17T05:28:13.099Z,-1.10
2024-01-17T05:30:40.209Z,-1.00
2024-01-17T05:33:07.422Z,-1.10
2024-01-17T05:35:34.544Z,-1.10
2024-01-17T05:38:01.908Z,-1.00
2024-01-17T05:40:29.092Z,-1.20
2024-01-17T05:42:59.467Z,-1.20
2024-01-17T05:45:26.444Z,-1.20
2024-01-17T05:47:53.387Z,-1.30
2024-01-17T05:50:20.947Z,-1.20
2024-01-17T05:52:49.372Z,-1.30
2024-01-17T05:55:21.219Z,-1.30
2024-01-17T05:57:48.188Z,-1.30
2024-01-17T06:00:15.841Z,-1.30
2024-01-17T06:02:44.276Z,-1.30
2024-01-17T06:05:11.982Z,-1.20
2024-01-17T06:07:42.279Z,-1.20
2024-01-17T06:10:10.877Z,-1.10
2024-01-17T06:12:37.691Z,-1.10
2024-01-17T06:15:05.139Z,-1.20
2024-01-17T06:17:32.126Z,-1.10
2024-01-17T06:19:59.261Z,-1.10
2024-01-17T06:22:26.920Z,-1.10
2024-01-17T06:24:53.858Z,-1.10
2024-01-17T06:27:20.784Z,-1.20
2024-01-17T06:29:48.082Z,-1.20
2024-01-17T06:32:18.785Z,-1.20
2024-01-17T06:34:45.723Z,-1.20
2024-01-17T06:37:12.638Z,-1.20
2024-01-17T06:39:40.602Z,-1.20
2024-01-17T06:42:17.442Z,-1.20
2024-01-17T06:44:45.477Z,-1.20
2024-01-17T06:47:12.522Z,-1.20
2024-01-17T06:49:41.429Z,-1.20
2024-01-17T06:52:08.488Z,-1.20
2024-01-17T06:54:35.416Z,-1.10
2024-01-17T06:57:02.247Z,-1.10
2024-01-17T06:59:29.364Z,-1.00
2024-01-17T07:01:56.241Z,-1.00
2024-01-17T07:04:27.342Z,-0.90
2024-01-17T07:06:54.427Z,-1.00
2024-01-17T07:09:21.471Z,-1.10
2024-01-17T07:11:48.607Z,-1.10
2024-01-17T07:14:15.617Z,-1.10
2024-01-17T07:16:43.216Z,-1.00
2024-01-17T07:19:10.613Z,-1.00
2024-01-17T07:21:41.002Z,-1.10
2024-01-17T07:24:08.138Z,-1.10
2024-01-17T07:26:35.042Z,-1.10
2024-01-17T07:29:04.029Z,-1.10
2024-01-17T07:31:30.989Z,-1.00
2024-01-17T07:33:58.030Z,-1.00
2024-01-17T07:36:25.385Z,-0.90
2024-01-17T07:38:52.770Z,-0.90
2024-01-17T07:41:19.683Z,-1.10
2024-01-17T07:43:47.854Z,-1.20
2024-01-17T07:46:17.922Z,-1.10
2024-01-17T07:48:45.758Z,-1.10
2024-01-17T07:51:13.332Z,-1.10
2024-01-17T07:53:40.383Z,-1.00
2024-01-17T07:56:07.274Z,-1.00
2024-01-17T07:58:34.259Z,-1.10
2024-01-17T08:01:01.361Z,-1.10
2024-01-17T08:03:31.215Z,-1.10
2024-01-17T08:05:58.739Z,-1.10
2024-01-17T08:08:25.749Z,-1.10
2024-01-17T08:10:53.355Z,-1.20
2024-01-17T08:13:20.694Z,-1.20
2024-01-17T08:15:47.854Z,-1.30
2024-01-17T08:18:15.423Z,-1.20
2024-01-17T08:20:42.959Z,-1.20
2024-01-17T08:23:10.165Z,-1.20
2024-01-17T08:25:39.603Z,-1.20
2024-01-17T08:28:06.737Z,-1.20
2024-01-17T08:30:33.949Z,-1.20
2024-01-17T08:33:01.009Z,-1.10
2024-01-17T08:35:27.992Z,-1.00
2024-01-17T08:37:54.994Z,-1.00
2024-01-17T08:40:27.012Z,-1.00
2024-01-17T08:42:54.270Z,-0.90
2024-01-17T08:45:21.134Z,-1.00
2024-01-17T08:47:48.153Z,-0.90
2024-01-17T08:50:15.528Z,-0.90
2024-01-17T08:52:42.698Z,-0.90
2024-01-17T08:55:10.697Z,-0.90
2024-01-17T08:57:41.236Z,-0.80
2024-01-17T09:00:09.509Z,-0.80
2024-01-17T09:02:36.764Z,-0.80
2024-01-17T09:05:04.258Z,-0.70
2024-01-17T09:07:33.567Z,-0.70
2024-01-17T09:10:00.988Z,-0.60
2024-01-17T09:12:27.918Z,-0.70
2024-01-17T09:14:56.288Z,-0.70
2024-01-17T09:17:23.822Z,-0.70
2024-01-17T09:19:50.790Z,-0.70
2024-01-17T09:22:17.934Z,-0.70
2024-01-17T09:24:45.008Z,-0.70
2024-01-17T09:27:15.360Z,-0.60
2024-01-17T09:29:43.903Z,-0.50
2024-01-17T09:32:13.611Z,-0.50
2024-01-17T09:34:43.256Z,-0.50
2024-01-17T09:37:11.607Z,-0.50
2024-01-17T09:39:38.572Z,-0.50
2024-01-17T09:42:07.932Z,-0.40
2024-01-17T09:44:38.746Z,-0.40
2024-01-17T09:47:06.534Z,-0.30
2024-01-17T09:49:34.565Z,-0.30
2024-01-17T09:52:06.120Z,-0.30
2024-01-17T09:54:43.712Z,-0.30
2024-01-17T09:57:19.330Z,-0.30
2024-01-17T09:59:58.138Z,-0.40
2024-01-17T10:02:29.070Z,-0.40
2024-01-17T10:04:58.789Z,-0.30
2024-01-17T10:07:25.735Z,-0.30
2024-01-17T10:09:52.829Z,-0.30
2024-01-17T10:12:20.740Z,-0.30
2024-01-17T10:14:48.339Z,-0.30
2024-01-17T10:17:15.384Z,-0.30
2024-01-17T10:19:43.002Z,-0.30
2024-01-17T10:22:11.856Z,-0.30
2024-01-17T10:24:42.687Z,-0.20
2024-01-17T10:27:09.790Z,-0.20
2024-01-17T10:29:44.365Z,-0.20
2024-01-17T10:32:11.343Z,-0.20
2024-01-17T10:34:42.317Z,-0.20
2024-01-17T10:37:15.244Z,-0.20
2024-01-17T10:39:42.140Z,-0.20
2024-01-17T10:42:21.644Z,-0.20
2024-01-17T10:44:48.818Z,-0.10
2024-01-17T10:47:15.920Z,-0.10
2024-01-17T10:49:45.073Z,-0.10
2024-01-17T10:52:15.701Z,-0.10
2024-01-17T10:55:05.878Z,0.00
2024-01-17T10:57:36.989Z,0.10
2024-01-17T11:00:14.114Z,0.10
2024-01-17T11:02:42.372Z,0.10
2024-01-17T11:05:12.653Z,0.20
2024-01-17T11:07:44.759Z,0.10
2024-01-17T11:10:12.220Z,0.10
2024-01-17T11:12:39.589Z,0.10
2024-01-17T11:15:08.615Z,0.10
2024-01-17T11:17:38.875Z,0.10
2024-01-17T11:20:09.559Z,0.20
2024-01-17T11:22:37.502Z,0.20
2024-01-17T11:25:14.653Z,0.20
2024-01-17T11:28:06.124Z,0.30
2024-01-17T11:30:58.177Z,0.30
2024-01-17T11:33:27.263Z,0.20
2024-01-17T11:35:54.711Z,0.10
2024-01-17T11:38:24.969Z,0.20
2024-01-17T11:40:59.257Z,0.20
2024-01-17T11:43:36.810Z,0.10
2024-01-17T11:46:10.889Z,0.10
2024-01-17T11:48:40.889Z,0.10
2024-01-17T11:51:16.516Z,0.10
2024-01-17T11:53:50.387Z,0.20
2024-01-17T11:56:21.606Z,0.30
2024-01-17T11:58:53.322Z,0.30
2024-01-17T12:01:46.438Z,0.20
2024-01-17T12:04:17.853Z,0.20
2024-01-17T12:06:53.009Z,0.10
2024-01-17T12:09:23.423Z,0.20
2024-01-17T12:11:53.422Z,0.10
2024-01-17T12:14:20.652Z,0.10
2024-01-17T12:16:48.752Z,0.20
2024-01-17T12:19:16.666Z,0.20
2024-01-17T12:21:44.307Z,0.10
2024-01-17T12:24:16.712Z,0.20
2024-01-17T12:26:44.623Z,0.30
2024-01-17T12:29:14.683Z,0.30
2024-01-17T12:31:41.857Z,0.30
2024-01-17T12:34:09.238Z,0.40
2024-01-17T12:36:37.401Z,0.30
2024-01-17T12:39:06.569Z,0.20
2024-01-17T12:41:36.853Z,0.20
2024-01-17T12:44:05.756Z,0.20
2024-01-17T12:46:33.428Z,0.20
2024-01-17T12:49:03.756Z,0.10
2024-01-17T12:51:33.302Z,0.10
2024-01-17T12:54:00.664Z,0.00
2024-01-17T12:56:28.384Z,0.00
2024-01-17T12:58:55.287Z,0.00
2024-01-17T13:01:35.379Z,0.10
2024-01-17T13:04:08.704Z,0.00
2024-01-17T13:06:49.293Z,0.00
2024-01-17T13:09:20.140Z,0.00
2024-01-17T13:11:52.722Z,0.00
2024-01-17T13:14:20.530Z,-0.10
2024-01-17T13:16:47.774Z,-0.10
2024-01-17T13:19:16.125Z,0.00
2024-01-17T13:21:43.817Z,0.00
2024-01-17T13:24:11.550Z,0.00
2024-01-17T13:26:42.269Z,0.10
2024-01-17T13:29:10.785Z,0.10
2024-01-17T13:31:38.029Z,0.00
2024-01-17T13:34:08.507Z,0.00
2024-01-17T13:36:35.813Z,0.00
2024-01-17T13:39:05.077Z,0.10
2024-01-17T13:41:35.471Z,0.20
2024-01-17T13:44:02.515Z,0.30
2024-01-17T13:46:30.221Z,0.30
2024-01-17T13:48:58.961Z,0.30
2024-01-17T13:51:31.852Z,0.30
2024-01-17T13:54:05.488Z,0.30
2024-01-17T13:56:32.442Z,0.30
2024-01-17T13:59:16.849Z,0.30
2024-01-17T14:01:43.923Z,0.30
2024-01-17T14:04:11.606Z,0.40
2024-01-17T14:06:39.132Z,0.40
2024-01-17T14:09:08.489Z,0.40
2024-01-17T14:11:40.597Z,0.30
2024-01-17T14:14:13.369Z,0.30
2024-01-17T14:16:42.056Z,0.30
2024-01-17T14:19:09.207Z,0.30
2024-01-17T14:21:37.164Z,0.20
2024-01-17T14:24:06.178Z,0.20
2024-01-17T14:26:33.780Z,0.10
2024-01-17T14:29:00.690Z,0.10
2024-01-17T14:31:27.626Z,0.00
2024-01-17T14:33:55.628Z,0.00
2024-01-17T14:36:22.582Z,0.00
2024-01-17T14:38:49.493Z,0.00
2024-01-17T14:41:16.395Z,0.00
2024-01-17T14:43:43.251Z,0.00
2024-01-17T14:46:10.199Z,0.00
2024-01-17T14:48:39.892Z,0.00
2024-01-17T14:51:07.278Z,-0.10
2024-01-17T14:53:34.233Z,-0.10
2024-01-17T14:56:01.167Z,-0.10
2024-01-17T14:58:28.513Z,-0.10
2024-01-17T15:00:55.433Z,-0.10
2024-01-17T15:03:22.629Z,-0.10
2024-01-17T15:05:49.724Z,-0.10
2024-01-17T15:08:17.176Z,-0.10
2024-01-17T15:10:44.169Z,-0.10
2024-01-17T15:13:11.263Z,-0.20
2024-01-17T15:15:38.330Z,-0.20
2024-01-17T15:18:07.875Z,-0.20
2024-01-17T15:20:35.072Z,-0.20
2024-01-17T15:23:07.996Z,-0.20
2024-01-17T15:25:35.048Z,-0.20
2024-01-17T15:28:01.948Z,-0.20
2024-01-17T15:30:28.779Z,-0.30
2024-01-17T15:32:56.048Z,-0.30
2024-01-17T15:35:23.065Z,-0.30
2024-01-17T15:37:53.855Z,-0.20
2024-01-17T15:40:20.789Z,-0.20
2024-01-17T15:42:47.647Z,-0.20
2024-01-17T15:45:17.054Z,-0.30
2024-01-17T15:47:44.483Z,-0.30
2024-01-17T15:50:12.619Z,-0.30
2024-01-17T15:52:39.487Z,-0.30
2024-01-17T15:55:07.614Z,-0.30
2024-01-17T15:57:34.771Z,-0.30
2024-01-17T16:00:01.927Z,-0.40
2024-01-17T16:02:39.604Z,-0.40
2024-01-17T16:05:07.079Z,-0.40
2024-01-17T16:07:36.785Z,-0.40
2024-01-17T16:10:09.705Z,-0.40
2024-01-17T16:12:37.079Z,-0.40
2024-01-17T16:15:05.168Z,-0.40
2024-01-17T16:17:33.030Z,-0.40
2024-01-17T16:20:00.213Z,-0.40
2024-01-17T16:22:27.248Z,-0.40
2024-01-17T16:24:54.121Z,-0.40
2024-01-17T16:27:21.360Z,-0.30
2024-01-17T16:29:48.302Z,-0.40
2024-01-17T16:32:15.208Z,-0.40
2024-01-17T16:34:42.874Z,-0.40
2024-01-17T16:37:10.019Z,-0.30
2024-01-17T16:39:37.787Z,-0.40
2024-01-17T16:42:05.673Z,-0.40
2024-01-17T16:44:32.797Z,-0.40
2024-01-17T16:47:01.689Z,-0.40
2024-01-17T16:49:30.419Z,-0.30
2024-01-17T16:51:57.578Z,-0.30
2024-01-17T16:54:24.510Z,-0.30
2024-01-17T16:56:51.500Z,-0.30
2024-01-17T16:59:19.338Z,-0.30
2024-01-17T17:01:48.033Z,-0.30
2024-01-17T17:04:14.900Z,-0.30
2024-01-17T17:06:42.299Z,-0.40
2024-01-17T17:09:10.097Z,-0.40
2024-01-17T17:11:43.177Z,-0.40
2024-01-17T17:14:10.164Z,-0.40
2024-01-17T17:16:37.533Z,-0.30
2024-01-17T17:19:04.479Z,-0.30
2024-01-17T17:21:31.649Z,-0.20
2024-01-17T17:23:58.719Z,-0.20
2024-01-17T17:26:25.727Z,-0.30
2024-01-17T17:28:53.954Z,-0.20
2024-01-17T17:31:22.502Z,-0.20
2024-01-17T17:33:49.522Z,-0.30
2024-01-17T17:36:16.646Z,-0.30
2024-01-17T17:38:43.681Z,-0.30
2024-01-17T17:41:10.796Z,-0.20
2024-01-17T17:43:37.934Z,-0.20
2024-01-17T17:46:04.943Z,-0.20
2024-01-17T17:48:35.814Z,-0.20
2024-01-17T17:51:04.492Z,-0.20
2024-01-17T17:53:31.547Z,-0.20
2024-01-17T17:55:59.014Z,-0.20
2024-01-17T17:58:26.841Z,-0.20
2024-01-17T18:00:53.782Z,-0.10
2024-01-17T18:03:20.873Z,-0.10
2024-01-17T18:05:48.489Z,-0.10
2024-01-17T18:08:16.159Z,-0.10
2024-01-17T18:10:44.735Z,-0.10
2024-01-17T18:13:13.920Z,-0.10
2024-01-17T18:15:41.292Z,-0.10
2024-01-17T18:18:08.867Z,-0.10
2024-01-17T18:20:36.384Z,-0.10
2024-01-17T18:23:03.305Z,-0.10
2024-01-17T18:25:31.793Z,0.00
2024-01-17T18:28:00.031Z,-0.10
2024-01-17T18:30:26.936Z,-0.10
2024-01-17T18:32:54.180Z,-0.10
2024-01-17T18:35:21.076Z,0.00
2024-01-17T18:37:48.060Z,0.00
2024-01-17T18:40:15.611Z,0.00
2024-01-17T18:42:42.509Z,0.00
2024-01-17T18:45:10.000Z,0.00
2024-01-17T18:47:36.947Z,0.00
2024-01-17T18:50:04.234Z,0.00
2024-01-17T18:52:32.609Z,0.00
2024-01-17T18:55:00.043Z,0.00
2024-01-17T18:57:27.101Z,0.00
2024-01-17T18:59:54.163Z,0.00
2024-01-17T19:02:24.176Z,0.00
2024-01-17T19:04:51.313Z,0.10
2024-01-17T19:07:18.248Z,0.10
2024-01-17T19:09:45.203Z,0.00
2024-01-17T19:12:18.221Z,0.10
2024-01-17T19:14:45.235Z,0.00
2024-01-17T19:17:12.181Z,0.10
2024-01-17T19:19:41.410Z,0.10
2024-01-17T19:22:10.665Z,0.10
2024-01-17T19:24:38.701Z,0.10
2024-01-17T19:27:05.750Z,0.10
2024-01-17T19:29:32.991Z,0.10
2024-01-17T19:32:00.046Z,0.20
2024-01-17T19:34:29.383Z,0.10
2024-01-17T19:36:56.460Z,0.10
2024-01-17T19:39:23.596Z,0.10
2024-01-17T19:41:51.261Z,0.10
2024-01-17T19:44:18.734Z,0.10
2024-01-17T19:46:47.922Z,0.10
2024-01-17T19:49:31.586Z,0.20
2024-01-17T19:52:00.958Z,0.20
2024-01-17T19:54:27.976Z,0.20
2024-01-17T19:56:54.888Z,0.20
2024-01-17T19:59:21.912Z,0.20
2024-01-17T20:01:49.697Z,0.20
2024-01-17T20:04:19.193Z,0.20
2024-01-17T20:06:46.819Z,0.10
2024-01-17T20:09:13.833Z,0.10
2024-01-17T20:11:44.047Z,0.10
2024-01-17T20:14:10.874Z,0.10
2024-01-17T20:16:37.768Z,0.20
2024-01-17T20:19:07.476Z,0.10
2024-01-17T20:21:35.074Z,0.10
2024-01-17T20:24:02.252Z,0.10
2024-01-17T20:26:29.114Z,0.10
2024-01-17T20:28:56.097Z,0.10
2024-01-17T20:31:23.050Z,0.10
2024-01-17T20:33:50.149Z,0.10
2024-01-17T20:36:18.970Z,0.10
2024-01-17T20:38:46.001Z,0.10
2024-01-17T20:41:15.734Z,0.10
2024-01-17T20:43:46.627Z,0.10
2024-01-17T20:46:14.664Z,0.10
2024-01-17T20:48:41.660Z,0.10
2024-01-17T20:51:08.821Z,0.10
2024-01-17T20:53:39.015Z,0.10
2024-01-17T20:56:08.626Z,0.10
2024-01-17T20:58:35.887Z,0.10
2024-01-17T21:01:03.523Z,0.10
2024-01-17T21:03:32.791Z,0.10
2024-01-17T21:06:01.350Z,0.10
2024-01-17T21:08:28.475Z,0.10
2024-01-17T21:10:55.369Z,0.10
2024-01-17T21:13:22.721Z,0.10
2024-01-17T21:15:54.814Z,0.10
2024-01-17T21:18:22.180Z,0.10
2024-01-17T21:20:49.323Z,0.10
2024-01-17T21:23:20.459Z,0.10
2024-01-17T21:25:47.447Z,0.20
2024-01-17T21:28:14.471Z,0.20
2024-01-17T21:30:41.379Z,0.20
2024-01-17T21:33:08.633Z,0.20
2024-01-17T21:35:35.626Z,0.20
2024-01-17T21:38:03.506Z,0.20
2024-01-17T21:40:30.375Z,0.20
2024-01-17T21:42:57.302Z,0.20
2024-01-17T21:45:24.318Z,0.20
2024-01-17T21:47:51.407Z,0.20
2024-01-17T21:50:18.457Z,0.20
2024-01-17T21:52:46.384Z,0.20
2024-01-17T21:55:13.280Z,0.20
2024-01-17T21:57:40.226Z,0.20
2024-01-17T22:00:07.829Z,0.20
2024-01-17T22:02:40.614Z,0.20
2024-01-17T22:05:07.643Z,0.20
2024-01-17T22:07:34.528Z,0.20
2024-01-17T22:10:04.816Z,0.20
2024-01-17T22:12:31.737Z,0.20
2024-01-17T22:14:58.743Z,0.20
2024-01-17T22:17:25.716Z,0.20
2024-01-17T22:19:54.936Z,0.10
2024-01-17T22:22:21.852Z,0.10
2024-01-17T22:24:48.938Z,0.10
2024-01-17T22:27:15.970Z,0.10
2024-01-17T22:29:43.068Z,0.10
2024-01-17T22:32:09.943Z,0.00
2024-01-17T22:34:36.989Z,0.00
2024-01-17T22:37:04.530Z,0.00
2024-01-17T22:39:31.704Z,0.00
2024-01-17T22:41:58.874Z,-0.10
2024-01-17T22:44:26.224Z,-0.10
2024-01-17T22:46:53.233Z,-0.20
2024-01-17T22:49:20.186Z,-0.20
2024-01-17T22:51:52.340Z,-0.30
2024-01-17T22:54:19.321Z,-0.30
2024-01-17T22:56:46.449Z,-0.30
2024-01-17T22:59:13.347Z,-0.30
2024-01-17T23:01:41.108Z,-0.40
2024-01-17T23:04:09.256Z,-0.40
2024-01-17T23:06:36.302Z,-0.40
2024-01-17T23:09:04.761Z,-0.40
2024-01-17T23:11:34.634Z,-0.40
2024-01-17T23:14:01.600Z,-0.40
2024-01-17T23:16:28.622Z,-0.50
2024-01-17T23:18:55.840Z,-0.50
2024-01-17T23:21:23.558Z,-0.50
2024-01-17T23:23:50.709Z,-0.50
2024-01-17T23:26:17.624Z,-0.40
2024-01-17T23:28:44.659Z,-0.40
2024-01-17T23:31:11.659Z,-0.40
2024-01-17T23:33:38.771Z,-0.40
2024-01-17T23:36:05.968Z,-0.40
2024-01-17T23:38:32.946Z,-0.40
2024-01-17T23:40:59.944Z,-0.40
2024-01-17T23:43:26.901Z,-0.40
2024-01-17T23:45:53.866Z,-0.40
2024-01-17T23:48:20.794Z,-0.40
2024-01-17T23:50:47.809Z,-0.40
2024-01-17T23:53:14.696Z,-0.40
2024-01-17T23:55:41.633Z,-0.40
2024-01-17T23:58:08.525Z,-0.40
